createdAt,value
2022-11-29T00:01:26.784Z,6.73
2022-11-29T00:03:55.777Z,5.60
2022-11-29T00:06:29.147Z,7.50
2022-11-29T00:08:59.809Z,7.20
2022-11-29T00:11:51.020Z,6.47
2022-11-29T00:14:20.024Z,5.83
2022-11-29T00:16:54.468Z,5.70
2022-11-29T00:19:22.772Z,5.67
2022-11-29T00:21:49.648Z,7.37
2022-11-29T00:24:19.457Z,5.90
2022-11-29T00:26:47.443Z,6.93
2022-11-29T00:29:15.138Z,7.57
2022-11-29T00:31:43.424Z,5.87
2022-11-29T00:34:12.396Z,5.70
2022-11-29T00:36:40.063Z,7.10
2022-11-29T00:39:11.624Z,5.93
2022-11-29T00:41:40.621Z,5.17
2022-11-29T00:44:09.315Z,5.00
2022-11-29T00:46:37.403Z,7.43
2022-11-29T00:49:05.712Z,4.30
2022-11-29T00:51:33.742Z,5.33
2022-11-29T00:54:01.303Z,5.10
2022-11-29T00:56:28.336Z,5.83
2022-11-29T00:58:56.088Z,5.03
2022-11-29T01:01:24.390Z,6.57
2022-11-29T01:03:52.271Z,5.80
2022-11-29T01:06:21.116Z,6.90
2022-11-29T01:08:50.697Z,5.87
2022-11-29T01:11:22.534Z,6.57
2022-11-29T01:13:53.604Z,5.70
2022-11-29T01:16:25.064Z,5.50
2022-11-29T01:18:51.993Z,7.43
2022-11-29T01:21:22.529Z,6.90
2022-11-29T01:23:53.651Z,7.17
2022-11-29T01:26:25.646Z,6.37
2022-11-29T01:28:55.411Z,6.00
2022-11-29T01:31:26.397Z,7.50
2022-11-29T01:33:56.629Z,5.77
2022-11-29T01:36:24.829Z,6.40
2022-11-29T01:38:52.497Z,7.60
2022-11-29T01:41:23.291Z,6.07
2022-11-29T01:44:00.559Z,6.70
2022-11-29T01:46:31.830Z,5.53
2022-11-29T01:49:07.608Z,4.73
2022-11-29T01:51:37.700Z,6.07
2022-11-29T01:54:06.901Z,5.13
2022-11-29T01:56:35.327Z,4.80
2022-11-29T01:59:07.907Z,5.67
2022-11-29T02:01:36.650Z,7.47
2022-11-29T02:04:06.881Z,5.73
2022-11-29T02:06:38.791Z,6.00
2022-11-29T02:09:18.651Z,5.03
2022-11-29T02:12:09.644Z,5.57
2022-11-29T02:14:52.330Z,5.37
2022-11-29T02:18:15.506Z,4.93
2022-11-29T02:21:02.806Z,6.00
2022-11-29T02:23:55.746Z,5.63
2022-11-29T02:26:41.091Z,5.20
2022-11-29T02:29:27.478Z,5.37
2022-11-29T02:32:16.443Z,5.57
2022-11-29T02:34:52.652Z,5.43
2022-11-29T02:37:48.209Z,7.57
2022-11-29T02:40:41.938Z,5.47
2022-11-29T02:43:20.624Z,6.90
2022-11-29T02:46:12.594Z,6.40
2022-11-29T02:49:04.629Z,8.57
2022-11-29T02:52:00.290Z,5.07
2022-11-29T02:54:34.779Z,8.17
2022-11-29T02:57:33.925Z,6.40
2022-11-29T03:00:11.271Z,5.10
2022-11-29T03:02:51.898Z,6.30
2022-11-29T03:05:42.078Z,6.17
2022-11-29T03:08:17.892Z,5.70
2022-11-29T03:11:09.879Z,6.33
2022-11-29T03:13:55.197Z,5.77
2022-11-29T03:17:09.362Z,5.60
2022-11-29T03:20:14.075Z,6.50
2022-11-29T03:22:45.884Z,10.20
2022-11-29T03:25:29.115Z,6.00
2022-11-29T03:28:11.208Z,6.37
2022-11-29T03:30:41.853Z,6.00
2022-11-29T03:33:17.173Z,5.80
2022-11-29T03:36:11.671Z,4.87
2022-11-29T03:38:40.013Z,6.17
2022-11-29T03:41:23.452Z,6.57
2022-11-29T03:44:11.323Z,5.23
2022-11-29T03:46:48.508Z,5.37
2022-11-29T03:49:37.699Z,4.30
2022-11-29T03:52:36.641Z,6.67
2022-11-29T03:55:22.279Z,7.30
2022-11-29T03:58:13.804Z,5.93
2022-11-29T04:00:49.157Z,5.57
2022-11-29T04:03:19.394Z,6.07
2022-11-29T04:06:05.848Z,5.70
2022-11-29T04:08:55.067Z,7.40
2022-11-29T04:11:54.909Z,5.17
2022-11-29T04:14:35.405Z,6.40
2022-11-29T04:17:25.362Z,4.93
2022-11-29T04:19:58.765Z,5.73
2022-11-29T04:22:32.235Z,5.10
2022-11-29T04:25:27.517Z,5.17
2022-11-29T04:27:57.264Z,5.03
2022-11-29T04:30:25.770Z,3.90
2022-11-29T04:33:13.707Z,5.23
2022-11-29T04:35:57.008Z,4.50
2022-11-29T04:38:49.932Z,4.80
2022-11-29T04:41:40.567Z,4.87
2022-11-29T04:44:25.926Z,5.87
2022-11-29T04:47:19.271Z,6.37
2022-11-29T04:50:04.495Z,4.17
2022-11-29T04:52:58.770Z,4.77
2022-11-29T04:55:52.492Z,4.67
2022-11-29T04:58:31.902Z,5.20
2022-11-29T05:01:25.581Z,4.97
2022-11-29T05:04:06.752Z,4.67
2022-11-29T05:06:49.276Z,5.87
2022-11-29T05:09:45.690Z,5.23
2022-11-29T05:12:27.908Z,5.30
2022-11-29T05:14:55.545Z,7.50
2022-11-29T05:17:44.691Z,6.37
2022-11-29T05:20:28.042Z,4.53
2022-11-29T05:23:16.876Z,3.87
2022-11-29T05:25:48.160Z,6.80
2022-11-29T05:29:07.776Z,5.03
2022-11-29T05:31:45.735Z,5.70
2022-11-29T05:34:35.119Z,4.43
2022-11-29T05:37:18.807Z,5.43
2022-11-29T05:40:26.915Z,6.17
2022-11-29T05:43:27.020Z,5.43
2022-11-29T05:46:23.879Z,5.07
2022-11-29T05:49:17.985Z,4.23
2022-11-29T05:52:06.984Z,4.97
2022-11-29T05:54:53.552Z,4.57
2022-11-29T05:57:53.211Z,4.33
2022-11-29T06:00:22.805Z,5.27
2022-11-29T06:02:58.365Z,4.67
2022-11-29T06:05:37.733Z,4.60
2022-11-29T06:08:10.280Z,7.20
2022-11-29T06:10:52.304Z,7.17
2022-11-29T06:13:30.888Z,18.47
2022-11-29T06:16:35.562Z,19.03
2022-11-29T06:19:28.219Z,12.80
2022-11-29T06:22:20.833Z,12.53
2022-11-29T06:25:23.176Z,6.73
2022-11-29T06:28:10.268Z,4.27
2022-11-29T06:30:47.466Z,4.13
2022-11-29T06:33:24.089Z,5.03
2022-11-29T06:36:08.471Z,4.87
2022-11-29T06:38:36.499Z,5.13
2022-11-29T06:41:04.393Z,4.13
2022-11-29T06:43:32.320Z,4.60
2022-11-29T06:46:20.137Z,4.43
2022-11-29T06:49:05.995Z,5.23
2022-11-29T06:51:49.336Z,4.30
2022-11-29T06:54:44.418Z,4.27
2022-11-29T06:57:24.803Z,4.23
2022-11-29T07:00:20.266Z,3.80
2022-11-29T07:03:21.417Z,4.60
2022-11-29T07:05:50.028Z,4.13
2022-11-29T07:08:21.938Z,3.07
2022-11-29T07:10:53.294Z,4.67
2022-11-29T07:13:22.729Z,3.53
2022-11-29T07:16:03.398Z,4.00
2022-11-29T07:19:01.081Z,4.73
2022-11-29T07:21:48.503Z,3.53
2022-11-29T07:24:30.676Z,3.57
2022-11-29T07:27:19.043Z,3.87
2022-11-29T07:29:55.971Z,4.53
2022-11-29T07:32:50.895Z,3.93
2022-11-29T07:35:41.704Z,3.73
2022-11-29T07:38:29.549Z,2.90
2022-11-29T07:41:23.660Z,3.73
2022-11-29T07:44:33.407Z,3.90
2022-11-29T07:47:00.998Z,3.60
2022-11-29T07:49:28.645Z,3.50
2022-11-29T07:51:57.077Z,4.27
2022-11-29T07:54:25.165Z,3.50
2022-11-29T07:56:52.449Z,3.80
2022-11-29T07:59:20.124Z,3.60
2022-11-29T08:01:47.059Z,3.83
2022-11-29T08:04:14.209Z,4.50
2022-11-29T08:06:41.102Z,5.27
2022-11-29T08:09:08.743Z,3.53
2022-11-29T08:11:36.374Z,4.13
2022-11-29T08:14:05.432Z,6.27
2022-11-29T08:16:33.933Z,5.50
2022-11-29T08:19:01.583Z,4.17
2022-11-29T08:21:30.431Z,4.10
2022-11-29T08:23:58.092Z,4.97
2022-11-29T08:26:31.243Z,5.23
2022-11-29T08:28:58.658Z,3.83
2022-11-29T08:31:26.271Z,3.37
2022-11-29T08:33:53.868Z,4.57
2022-11-29T08:36:21.828Z,7.50
2022-11-29T08:38:53.841Z,4.13
2022-11-29T08:41:24.750Z,5.40
2022-11-29T08:43:53.282Z,5.03
2022-11-29T08:46:21.044Z,2.77
2022-11-29T08:48:49.928Z,5.93
2022-11-29T08:51:18.853Z,3.23
2022-11-29T08:53:51.657Z,3.60
2022-11-29T08:57:10.137Z,3.07
2022-11-29T08:59:10.656Z,2.87
2022-11-29T09:01:37.563Z,2.97
2022-11-29T09:04:07.702Z,2.57
2022-11-29T09:06:41.288Z,3.33
2022-11-29T09:09:08.193Z,3.27
2022-11-29T09:11:36.724Z,2.90
2022-11-29T09:14:07.635Z,3.13
2022-11-29T09:16:37.261Z,3.30
2022-11-29T09:19:05.606Z,3.30
2022-11-29T09:21:36.782Z,3.10
2022-11-29T09:24:06.500Z,4.07
2022-11-29T09:26:36.851Z,3.23
2022-11-29T09:29:06.546Z,3.50
2022-11-29T09:31:35.214Z,3.27
2022-11-29T09:34:02.947Z,3.33
2022-11-29T09:36:30.927Z,2.63
2022-11-29T09:38:59.030Z,2.57
2022-11-29T09:41:37.817Z,2.80
2022-11-29T09:44:11.296Z,3.20
2022-11-29T09:46:55.759Z,2.63
2022-11-29T09:49:35.840Z,3.83
2022-11-29T09:52:12.076Z,3.27
2022-11-29T09:54:50.451Z,3.70
2022-11-29T09:57:19.727Z,2.63
2022-11-29T09:59:51.523Z,2.13
2022-11-29T10:02:42.252Z,2.70
2022-11-29T10:05:23.980Z,3.63
2022-11-29T10:08:06.700Z,3.37
2022-11-29T10:10:46.344Z,3.40
2022-11-29T10:13:34.358Z,3.23
2022-11-29T10:16:13.906Z,4.57
2022-11-29T10:18:51.324Z,4.37
2022-11-29T10:21:34.405Z,2.83
2022-11-29T10:24:09.687Z,3.30
2022-11-29T10:26:37.710Z,2.20
2022-11-29T10:29:05.293Z,2.43
2022-11-29T10:31:43.233Z,5.13
2022-11-29T10:34:18.522Z,2.40
2022-11-29T10:36:54.655Z,3.57
2022-11-29T10:39:31.012Z,2.70
2022-11-29T10:42:02.624Z,2.57
2022-11-29T10:44:32.924Z,2.13
2022-11-29T10:47:10.422Z,2.50
2022-11-29T10:49:40.228Z,2.23
2022-11-29T10:52:19.466Z,3.30
2022-11-29T10:54:49.915Z,2.40
2022-11-29T10:57:22.093Z,1.90
2022-11-29T11:00:04.087Z,2.30
2022-11-29T11:02:31.874Z,2.13
2022-11-29T11:04:59.351Z,2.90
2022-11-29T11:07:35.158Z,2.03
2022-11-29T11:10:26.638Z,2.50
2022-11-29T11:13:07.070Z,2.57
2022-11-29T11:15:34.746Z,2.50
2022-11-29T11:18:06.281Z,2.30
2022-11-29T11:20:40.031Z,3.10
2022-11-29T11:23:24.730Z,2.63
2022-11-29T11:26:07.027Z,2.20
2022-11-29T11:28:51.088Z,2.30
2022-11-29T11:31:38.157Z,2.50
2022-11-29T11:34:36.004Z,3.00
2022-11-29T11:37:15.445Z,3.70
2022-11-29T11:39:45.130Z,2.40
2022-11-29T11:42:39.832Z,2.57
2022-11-29T11:45:13.471Z,2.60
2022-11-29T11:47:43.450Z,4.97
2022-11-29T11:50:17.699Z,2.60
2022-11-29T11:52:52.421Z,2.53
2022-11-29T11:55:22.475Z,2.73
2022-11-29T11:58:09.878Z,3.40
2022-11-29T12:03:54.745Z,2.70
2022-11-29T12:07:00.722Z,2.10
2022-11-29T12:09:46.168Z,2.73
2022-11-29T12:12:37.219Z,2.33
2022-11-29T12:15:35.551Z,2.10
2022-11-29T12:18:21.099Z,2.73
2022-11-29T12:20:57.379Z,2.87
2022-11-29T12:23:30.436Z,2.53
2022-11-29T12:26:55.356Z,3.43
2022-11-29T12:29:18.688Z,2.53
2022-11-29T12:32:11.797Z,2.63
2022-11-29T12:34:47.908Z,2.27
2022-11-29T12:37:24.645Z,2.47
2022-11-29T12:40:04.181Z,2.03
2022-11-29T12:42:49.617Z,2.20
2022-11-29T12:45:44.005Z,1.93
2022-11-29T12:48:22.537Z,2.50
2022-11-29T12:50:58.422Z,3.37
2022-11-29T12:53:34.663Z,2.53
2022-11-29T12:56:21.083Z,2.87
2022-11-29T12:58:56.770Z,2.80
2022-11-29T13:01:45.729Z,3.83
2022-11-29T13:04:27.273Z,4.33
2022-11-29T13:07:21.913Z,4.60
2022-11-29T13:09:49.408Z,4.20
2022-11-29T13:12:28.159Z,2.53
2022-11-29T13:15:06.860Z,4.33
2022-11-29T13:17:56.368Z,2.93
2022-11-29T13:20:35.122Z,3.27
2022-11-29T13:23:45.989Z,3.47
2022-11-29T13:26:14.298Z,2.47
2022-11-29T13:28:44.268Z,2.43
2022-11-29T13:31:22.908Z,3.03
2022-11-29T13:34:23.099Z,3.57
2022-11-29T13:37:05.140Z,2.90
2022-11-29T13:39:54.224Z,2.97
2022-11-29T13:42:24.395Z,3.90
2022-11-29T13:45:26.752Z,3.13
2022-11-29T13:47:57.748Z,2.00
2022-11-29T13:50:44.954Z,2.73
2022-11-29T13:53:30.783Z,2.60
2022-11-29T13:56:01.865Z,3.50
2022-11-29T13:58:40.197Z,4.07
2022-11-29T14:01:08.674Z,2.60
2022-11-29T14:03:39.798Z,2.20
2022-11-29T14:06:11.300Z,2.03
2022-11-29T14:12:05.839Z,3.73
2022-11-29T14:15:18.300Z,3.63
2022-11-29T14:17:59.960Z,2.33
2022-11-29T14:20:30.566Z,2.77
2022-11-29T14:23:04.161Z,2.80
2022-11-29T14:25:54.212Z,2.90
2022-11-29T14:28:22.130Z,3.57
2022-11-29T14:30:57.152Z,2.80
2022-11-29T14:33:42.844Z,3.27
2022-11-29T14:36:17.601Z,3.50
2022-11-29T14:38:58.057Z,1.80
2022-11-29T14:41:44.422Z,2.90
2022-11-29T14:44:24.857Z,2.53
2022-11-29T14:47:07.345Z,2.67
2022-11-29T14:49:43.329Z,4.30
2022-11-29T14:52:14.084Z,2.63
2022-11-29T14:54:56.513Z,2.23
2022-11-29T14:57:52.004Z,3.00
2022-11-29T15:00:23.768Z,3.67
2022-11-29T15:03:00.864Z,2.80
2022-11-29T15:05:33.741Z,3.20
2022-11-29T15:08:00.569Z,3.60
2022-11-29T15:10:33.533Z,2.50
2022-11-29T15:13:01.785Z,3.33
2022-11-29T15:15:37.909Z,2.83
2022-11-29T15:18:26.942Z,3.57
2022-11-29T15:21:19.082Z,4.10
2022-11-29T15:23:45.940Z,3.70
2022-11-29T15:26:19.680Z,4.03
2022-11-29T15:28:47.002Z,3.63
2022-11-29T15:31:18.254Z,3.43
2022-11-29T15:33:49.334Z,7.57
2022-11-29T15:36:24.288Z,3.93
2022-11-29T15:38:54.846Z,4.07
2022-11-29T15:41:30.517Z,8.00
2022-11-29T15:44:19.547Z,4.70
2022-11-29T15:46:48.286Z,22.07
2022-11-29T15:49:23.790Z,3.87
2022-11-29T15:52:10.764Z,3.30
2022-11-29T15:54:46.130Z,4.60
2022-11-29T15:57:23.377Z,6.43
2022-11-29T15:59:53.377Z,23.57
2022-11-29T16:02:30.837Z,7.47
2022-11-29T16:05:24.790Z,5.27
2022-11-29T16:08:00.938Z,3.67
2022-11-29T16:10:37.591Z,3.80
2022-11-29T16:13:25.868Z,4.00
2022-11-29T16:16:11.460Z,3.17
2022-11-29T16:18:43.054Z,3.17
2022-11-29T16:21:30.588Z,5.10
2022-11-29T16:24:12.268Z,4.77
2022-11-29T16:26:43.390Z,5.17
2022-11-29T16:29:31.480Z,4.47
2022-11-29T16:31:59.235Z,6.07
2022-11-29T16:34:33.039Z,4.80
2022-11-29T16:37:20.509Z,3.90
2022-11-29T16:39:56.740Z,4.10
2022-11-29T16:42:26.629Z,5.40
2022-11-29T16:45:02.152Z,5.20
2022-11-29T16:47:32.167Z,4.20
2022-11-29T16:50:14.585Z,5.17
2022-11-29T16:52:43.921Z,5.43
2022-11-29T16:55:12.496Z,7.87
2022-11-29T16:57:41.649Z,5.60
2022-11-29T17:00:22.566Z,6.30
2022-11-29T17:02:50.147Z,5.50
2022-11-29T17:05:17.162Z,7.53
2022-11-29T17:07:45.019Z,3.90
2022-11-29T17:10:18.470Z,4.27
2022-11-29T17:12:48.289Z,6.20
2022-11-29T17:15:17.080Z,5.03
2022-11-29T17:17:45.541Z,5.43
2022-11-29T17:20:13.643Z,6.03
2022-11-29T17:22:42.622Z,9.13
2022-11-29T17:25:12.035Z,8.77
2022-11-29T17:27:39.613Z,5.93
2022-11-29T17:30:08.732Z,5.17
2022-11-29T17:32:36.358Z,7.60
2022-11-29T17:35:05.267Z,6.80
2022-11-29T17:37:34.582Z,5.67
2022-11-29T17:40:03.242Z,5.47
2022-11-29T17:42:31.632Z,5.57
2022-11-29T17:45:00.992Z,5.63
2022-11-29T17:47:27.883Z,5.97
2022-11-29T17:49:54.821Z,5.60
2022-11-29T17:52:21.705Z,9.03
2022-11-29T17:54:50.308Z,9.57
2022-11-29T17:57:18.340Z,8.93
2022-11-29T17:59:46.108Z,8.37
2022-11-29T18:02:13.957Z,8.40
2022-11-29T18:04:42.687Z,9.57
2022-11-29T18:07:15.888Z,9.40
2022-11-29T18:09:44.300Z,63.13
2022-11-29T18:12:13.899Z,9.87
2022-11-29T18:14:42.237Z,7.90
2022-11-29T18:17:11.376Z,7.43
2022-11-29T18:19:39.035Z,5.53
2022-11-29T18:22:09.598Z,8.13
2022-11-29T18:24:37.984Z,10.63
2022-11-29T18:27:06.243Z,6.33
2022-11-29T18:29:39.149Z,8.43
2022-11-29T18:32:07.779Z,9.63
2022-11-29T18:34:35.346Z,9.73
2022-11-29T18:37:02.191Z,9.93
2022-11-29T18:39:29.667Z,10.90
2022-11-29T18:41:57.257Z,8.70
2022-11-29T18:44:29.363Z,9.13
2022-11-29T18:46:57.157Z,7.47
2022-11-29T18:49:25.596Z,9.60
2022-11-29T18:51:53.904Z,9.00
2022-11-29T18:54:21.950Z,12.70
2022-11-29T18:56:51.099Z,12.77
2022-11-29T18:59:18.248Z,9.40
2022-11-29T19:01:48.091Z,10.80
2022-11-29T19:04:18.924Z,33.13
2022-11-29T19:06:47.517Z,40.90
2022-11-29T19:09:20.995Z,24.87
2022-11-29T19:11:50.924Z,34.80
2022-11-29T19:14:19.885Z,57.73
2022-11-29T19:16:49.998Z,53.30
2022-11-29T19:19:19.550Z,42.07
2022-11-29T19:21:48.411Z,19.00
2022-11-29T19:24:18.615Z,18.77
2022-11-29T19:26:47.805Z,24.83
2022-11-29T19:29:17.384Z,14.17
2022-11-29T19:31:47.271Z,10.47
2022-11-29T19:34:15.676Z,8.77
2022-11-29T19:36:44.964Z,8.57
2022-11-29T19:39:17.252Z,7.50
2022-11-29T19:41:47.798Z,8.20
2022-11-29T19:44:15.528Z,7.57
2022-11-29T19:46:48.814Z,6.93
2022-11-29T19:49:16.774Z,7.57
2022-11-29T19:51:44.359Z,7.63
2022-11-29T19:54:12.769Z,8.63
2022-11-29T19:56:41.714Z,6.83
2022-11-29T19:59:09.529Z,8.60
2022-11-29T20:01:42.750Z,6.37
2022-11-29T20:04:13.677Z,7.60
2022-11-29T20:06:42.854Z,7.27
2022-11-29T20:09:12.182Z,10.03
2022-11-29T20:11:39.969Z,7.70
2022-11-29T20:14:10.281Z,7.73
2022-11-29T20:16:39.058Z,7.57
2022-11-29T20:19:11.051Z,6.77
2022-11-29T20:21:43.090Z,6.17
2022-11-29T20:24:14.480Z,9.00
2022-11-29T20:26:46.318Z,7.93
2022-11-29T20:29:14.934Z,6.90
2022-11-29T20:31:50.064Z,6.37
2022-11-29T20:34:19.814Z,6.80
2022-11-29T20:37:09.282Z,7.37
2022-11-29T20:40:01.172Z,6.13
2022-11-29T20:42:44.956Z,10.30
2022-11-29T20:45:14.818Z,6.77
2022-11-29T20:48:00.816Z,8.67
2022-11-29T20:50:31.336Z,6.10
2022-11-29T20:53:12.219Z,5.70
2022-11-29T20:55:43.672Z,6.37
2022-11-29T20:58:13.439Z,6.70
2022-11-29T21:00:42.213Z,6.73
2022-11-29T21:03:13.528Z,5.50
2022-11-29T21:05:41.187Z,5.20
2022-11-29T21:08:08.774Z,5.40
2022-11-29T21:10:36.027Z,5.77
2022-11-29T21:13:04.800Z,5.57
2022-11-29T21:15:31.925Z,5.17
2022-11-29T21:18:00.101Z,6.63
2022-11-29T21:20:27.847Z,6.87
2022-11-29T21:23:00.722Z,4.73
2022-11-29T21:25:48.186Z,6.47
2022-11-29T21:28:17.151Z,6.77
2022-11-29T21:30:45.269Z,4.93
2022-11-29T21:33:13.096Z,4.73
2022-11-29T21:35:41.409Z,5.90
2022-11-29T21:38:14.633Z,4.27
2022-11-29T21:40:42.230Z,2.97
2022-11-29T21:43:11.969Z,3.70
2022-11-29T21:45:39.720Z,4.13
2022-11-29T21:48:30.205Z,4.60
2022-11-29T21:50:58.449Z,3.33
2022-11-29T21:53:28.542Z,4.30
2022-11-29T21:55:58.628Z,5.93
2022-11-29T21:58:29.509Z,4.03
2022-11-29T22:01:04.741Z,3.47
2022-11-29T22:03:34.056Z,3.50
2022-11-29T22:06:11.422Z,3.20
2022-11-29T22:08:41.125Z,2.57
2022-11-29T22:11:11.409Z,2.13
2022-11-29T22:14:01.490Z,3.87
2022-11-29T22:16:30.311Z,2.53
2022-11-29T22:18:58.676Z,2.07
2022-11-29T22:21:26.364Z,1.97
2022-11-29T22:23:53.928Z,4.10
2022-11-29T22:26:24.407Z,2.90
2022-11-29T22:28:52.722Z,2.27
2022-11-29T22:31:20.303Z,2.10
2022-11-29T22:33:47.164Z,2.23
2022-11-29T22:36:14.074Z,2.20
2022-11-29T22:38:40.931Z,2.10
2022-11-29T22:41:11.169Z,2.73
2022-11-29T22:43:40.900Z,2.30
2022-11-29T22:46:12.590Z,2.23
2022-11-29T22:48:42.199Z,2.77
2022-11-29T22:51:12.724Z,2.63
2022-11-29T22:53:47.327Z,2.00
2022-11-29T22:56:15.018Z,3.00
2022-11-29T22:58:42.800Z,2.40
2022-11-29T23:01:17.492Z,3.33
2022-11-29T23:03:48.192Z,2.70
2022-11-29T23:06:17.087Z,4.63
2022-11-29T23:08:46.477Z,2.50
2022-11-29T23:11:21.181Z,3.53
2022-11-29T23:13:48.977Z,2.27
2022-11-29T23:16:19.265Z,2.80
2022-11-29T23:18:47.307Z,4.73
2022-11-29T23:21:21.229Z,2.90
2022-11-29T23:23:56.083Z,2.37
2022-11-29T23:26:40.133Z,2.60
2022-11-29T23:29:10.466Z,3.60
2022-11-29T23:31:39.236Z,3.63
2022-11-29T23:34:06.232Z,2.03
2022-11-29T23:36:33.957Z,2.57
2022-11-29T23:39:01.848Z,3.30
2022-11-29T23:41:29.412Z,3.73
2022-11-29T23:43:57.197Z,3.67
2022-11-29T23:46:24.687Z,3.17
2022-11-29T23:48:53.062Z,3.23
2022-11-29T23:51:20.449Z,3.00
2022-11-29T23:53:52.918Z,3.67
2022-11-29T23:56:21.761Z,4.37
2022-11-29T23:58:49.526Z,3.53
